sensor_id;sensor_type;location;lat;lon;timestamp;P1;durP1;ratioP1;P2;durP2;ratioP2
46322;SDS011;32044;52.386;13.278;2023-07-16T00:00:35;4.80;;;3.55;;
46322;SDS011;32044;52.386;13.278;2023-07-16T00:03:03;3.63;;;3.05;;
46322;SDS011;32044;52.386;13.278;2023-07-16T00:05:31;4.63;;;3.38;;
46322;SDS011;32044;52.386;13.278;2023-07-16T00:07:58;3.47;;;2.97;;
46322;SDS011;32044;52.386;13.278;2023-07-16T00:10:26;3.85;;;3.38;;
46322;SDS011;32044;52.386;13.278;2023-07-16T00:12:53;6.15;;;3.65;;
46322;SDS011;32044;52.386;13.278;2023-07-16T00:15:22;6.60;;;3.80;;
46322;SDS011;32044;52.386;13.278;2023-07-16T00:17:50;7.45;;;4.13;;
46322;SDS011;32044;52.386;13.278;2023-07-16T00:20:17;5.75;;;3.85;;
46322;SDS011;32044;52.386;13.278;2023-07-16T00:22:45;5.13;;;3.72;;
46322;SDS011;32044;52.386;13.278;2023-07-16T00:25:13;7.75;;;3.95;;
46322;SDS011;32044;52.386;13.278;2023-07-16T00:27:40;4.82;;;4.32;;
46322;SDS011;32044;52.386;13.278;2023-07-16T00:30:08;5.32;;;4.15;;
46322;SDS011;32044;52.386;13.278;2023-07-16T00:32:38;4.88;;;4.00;;
46322;SDS011;32044;52.386;13.278;2023-07-16T00:35:06;4.07;;;3.53;;
46322;SDS011;32044;52.386;13.278;2023-07-16T00:37:34;6.03;;;4.15;;
46322;SDS011;32044;52.386;13.278;2023-07-16T00:40:02;6.93;;;4.03;;
46322;SDS011;32044;52.386;13.278;2023-07-16T00:42:30;6.88;;;4.55;;
46322;SDS011;32044;52.386;13.278;2023-07-16T00:44:58;4.82;;;4.30;;
46322;SDS011;32044;52.386;13.278;2023-07-16T00:47:26;5.20;;;4.38;;
46322;SDS011;32044;52.386;13.278;2023-07-16T00:49:55;5.20;;;4.05;;
46322;SDS011;32044;52.386;13.278;2023-07-16T00:52:22;5.85;;;4.95;;
46322;SDS011;32044;52.386;13.278;2023-07-16T00:54:50;6.70;;;4.70;;
46322;SDS011;32044;52.386;13.278;2023-07-16T00:57:17;5.32;;;4.70;;
46322;SDS011;32044;52.386;13.278;2023-07-16T00:59:45;5.25;;;4.75;;
46322;SDS011;32044;52.386;13.278;2023-07-16T01:02:12;4.97;;;4.55;;
46322;SDS011;32044;52.386;13.278;2023-07-16T01:04:40;7.22;;;4.55;;
46322;SDS011;32044;52.386;13.278;2023-07-16T01:07:10;5.78;;;4.75;;
46322;SDS011;32044;52.386;13.278;2023-07-16T01:09:39;6.57;;;5.03;;
46322;SDS011;32044;52.386;13.278;2023-07-16T01:12:09;7.22;;;5.00;;
46322;SDS011;32044;52.386;13.278;2023-07-16T01:14:37;5.88;;;5.07;;
46322;SDS011;32044;52.386;13.278;2023-07-16T01:17:05;7.30;;;5.97;;
46322;SDS011;32044;52.386;13.278;2023-07-16T01:19:33;9.38;;;4.88;;
46322;SDS011;32044;52.386;13.278;2023-07-16T01:22:04;6.28;;;5.47;;
46322;SDS011;32044;52.386;13.278;2023-07-16T01:27:52;7.38;;;4.90;;
46322;SDS011;32044;52.386;13.278;2023-07-16T01:30:28;7.43;;;5.32;;
46322;SDS011;32044;52.386;13.278;2023-07-16T01:32:56;8.65;;;5.00;;
46322;SDS011;32044;52.386;13.278;2023-07-16T01:35:24;8.68;;;4.90;;
46322;SDS011;32044;52.386;13.278;2023-07-16T01:37:52;8.02;;;4.40;;
46322;SDS011;32044;52.386;13.278;2023-07-16T01:40:20;4.40;;;3.90;;
46322;SDS011;32044;52.386;13.278;2023-07-16T01:42:47;7.10;;;4.05;;
46322;SDS011;32044;52.386;13.278;2023-07-16T01:45:15;5.30;;;3.45;;
46322;SDS011;32044;52.386;13.278;2023-07-16T01:47:52;8.27;;;4.38;;
46322;SDS011;32044;52.386;13.278;2023-07-16T01:50:27;5.25;;;3.38;;
46322;SDS011;32044;52.386;13.278;2023-07-16T01:52:54;5.13;;;2.90;;
46322;SDS011;32044;52.386;13.278;2023-07-16T01:55:22;4.47;;;3.08;;
46322;SDS011;32044;52.386;13.278;2023-07-16T01:57:49;3.90;;;2.53;;
46322;SDS011;32044;52.386;13.278;2023-07-16T02:00:17;3.35;;;3.05;;
46322;SDS011;32044;52.386;13.278;2023-07-16T02:02:46;3.70;;;2.92;;
46322;SDS011;32044;52.386;13.278;2023-07-16T02:05:14;4.00;;;2.80;;
46322;SDS011;32044;52.386;13.278;2023-07-16T02:07:42;2.33;;;2.13;;
46322;SDS011;32044;52.386;13.278;2023-07-16T02:10:09;2.92;;;2.42;;
46322;SDS011;32044;52.386;13.278;2023-07-16T02:12:37;6.72;;;2.58;;
46322;SDS011;32044;52.386;13.278;2023-07-16T02:15:05;2.83;;;2.20;;
46322;SDS011;32044;52.386;13.278;2023-07-16T02:17:33;2.42;;;2.22;;
46322;SDS011;32044;52.386;13.278;2023-07-16T02:20:02;3.45;;;2.58;;
46322;SDS011;32044;52.386;13.278;2023-07-16T02:22:31;3.35;;;2.78;;
46322;SDS011;32044;52.386;13.278;2023-07-16T02:24:59;4.13;;;2.53;;
46322;SDS011;32044;52.386;13.278;2023-07-16T02:27:27;3.38;;;2.30;;
46322;SDS011;32044;52.386;13.278;2023-07-16T02:29:54;7.95;;;2.88;;
46322;SDS011;32044;52.386;13.278;2023-07-16T02:32:22;2.70;;;2.42;;
46322;SDS011;32044;52.386;13.278;2023-07-16T02:34:50;3.20;;;2.47;;
46322;SDS011;32044;52.386;13.278;2023-07-16T02:37:19;4.55;;;2.97;;
46322;SDS011;32044;52.386;13.278;2023-07-16T02:39:46;3.25;;;2.95;;
46322;SDS011;32044;52.386;13.278;2023-07-16T02:42:14;2.95;;;2.47;;
46322;SDS011;32044;52.386;13.278;2023-07-16T02:44:41;3.55;;;2.60;;
46322;SDS011;32044;52.386;13.278;2023-07-16T02:47:11;3.65;;;2.40;;
46322;SDS011;32044;52.386;13.278;2023-07-16T02:49:39;6.20;;;3.10;;
46322;SDS011;32044;52.386;13.278;2023-07-16T02:52:06;2.83;;;2.45;;
46322;SDS011;32044;52.386;13.278;2023-07-16T02:54:36;4.20;;;2.72;;
46322;SDS011;32044;52.386;13.278;2023-07-16T02:57:04;4.68;;;2.50;;
46322;SDS011;32044;52.386;13.278;2023-07-16T02:59:32;3.92;;;2.72;;
46322;SDS011;32044;52.386;13.278;2023-07-16T03:02:00;5.50;;;2.78;;
46322;SDS011;32044;52.386;13.278;2023-07-16T03:04:27;3.05;;;2.70;;
46322;SDS011;32044;52.386;13.278;2023-07-16T03:06:55;4.53;;;2.80;;
46322;SDS011;32044;52.386;13.278;2023-07-16T03:09:22;4.35;;;2.90;;
46322;SDS011;32044;52.386;13.278;2023-07-16T03:11:51;3.97;;;2.65;;
46322;SDS011;32044;52.386;13.278;2023-07-16T03:14:19;4.68;;;3.00;;
46322;SDS011;32044;52.386;13.278;2023-07-16T03:16:46;6.25;;;3.00;;
46322;SDS011;32044;52.386;13.278;2023-07-16T03:19:14;3.15;;;2.85;;
46322;SDS011;32044;52.386;13.278;2023-07-16T03:21:41;3.58;;;3.10;;
46322;SDS011;32044;52.386;13.278;2023-07-16T03:24:09;4.80;;;3.47;;
46322;SDS011;32044;52.386;13.278;2023-07-16T03:26:37;3.75;;;3.38;;
46322;SDS011;32044;52.386;13.278;2023-07-16T03:29:06;4.45;;;2.88;;
46322;SDS011;32044;52.386;13.278;2023-07-16T03:31:33;7.03;;;3.35;;
46322;SDS011;32044;52.386;13.278;2023-07-16T03:34:01;8.05;;;3.95;;
46322;SDS011;32044;52.386;13.278;2023-07-16T03:36:28;4.90;;;3.80;;
46322;SDS011;32044;52.386;13.278;2023-07-16T03:38:56;5.00;;;4.18;;
46322;SDS011;32044;52.386;13.278;2023-07-16T03:41:24;6.22;;;4.15;;
46322;SDS011;32044;52.386;13.278;2023-07-16T03:43:51;6.43;;;4.38;;
46322;SDS011;32044;52.386;13.278;2023-07-16T03:46:20;6.05;;;4.10;;
46322;SDS011;32044;52.386;13.278;2023-07-16T03:48:48;4.32;;;3.47;;
46322;SDS011;32044;52.386;13.278;2023-07-16T03:51:15;4.15;;;3.75;;
46322;SDS011;32044;52.386;13.278;2023-07-16T03:53:43;3.90;;;3.30;;
46322;SDS011;32044;52.386;13.278;2023-07-16T03:56:11;4.15;;;3.40;;
46322;SDS011;32044;52.386;13.278;2023-07-16T03:58:38;4.60;;;3.78;;
46322;SDS011;32044;52.386;13.278;2023-07-16T04:01:06;4.18;;;3.35;;
46322;SDS011;32044;52.386;13.278;2023-07-16T04:03:35;3.53;;;3.10;;
46322;SDS011;32044;52.386;13.278;2023-07-16T04:06:03;5.18;;;3.42;;
46322;SDS011;32044;52.386;13.278;2023-07-16T04:08:30;5.13;;;3.65;;
46322;SDS011;32044;52.386;13.278;2023-07-16T04:10:58;3.58;;;3.28;;
46322;SDS011;32044;52.386;13.278;2023-07-16T04:13:26;5.70;;;3.75;;
46322;SDS011;32044;52.386;13.278;2023-07-16T04:15:53;6.35;;;3.33;;
46322;SDS011;32044;52.386;13.278;2023-07-16T04:18:23;4.45;;;3.78;;
46322;SDS011;32044;52.386;13.278;2023-07-16T04:20:52;4.50;;;3.63;;
46322;SDS011;32044;52.386;13.278;2023-07-16T04:23:20;5.43;;;3.78;;
46322;SDS011;32044;52.386;13.278;2023-07-16T04:25:50;4.30;;;3.90;;
46322;SDS011;32044;52.386;13.278;2023-07-16T04:28:18;5.97;;;4.63;;
46322;SDS011;32044;52.386;13.278;2023-07-16T04:30:46;5.18;;;4.72;;
46322;SDS011;32044;52.386;13.278;2023-07-16T04:33:14;8.10;;;4.53;;
46322;SDS011;32044;52.386;13.278;2023-07-16T04:35:41;5.80;;;4.60;;
46322;SDS011;32044;52.386;13.278;2023-07-16T04:38:10;5.28;;;4.57;;
46322;SDS011;32044;52.386;13.278;2023-07-16T04:40:37;6.15;;;5.00;;
46322;SDS011;32044;52.386;13.278;2023-07-16T04:43:05;4.80;;;4.30;;
46322;SDS011;32044;52.386;13.278;2023-07-16T04:45:32;5.75;;;4.38;;
46322;SDS011;32044;52.386;13.278;2023-07-16T04:48:00;5.90;;;4.28;;
46322;SDS011;32044;52.386;13.278;2023-07-16T04:50:28;5.15;;;4.00;;
46322;SDS011;32044;52.386;13.278;2023-07-16T04:52:55;8.88;;;4.30;;
46322;SDS011;32044;52.386;13.278;2023-07-16T04:55:24;4.45;;;4.00;;
46322;SDS011;32044;52.386;13.278;2023-07-16T04:57:52;5.78;;;4.30;;
46322;SDS011;32044;52.386;13.278;2023-07-16T05:00:19;5.90;;;4.30;;
46322;SDS011;32044;52.386;13.278;2023-07-16T05:02:47;5.30;;;4.22;;
46322;SDS011;32044;52.386;13.278;2023-07-16T05:05:15;6.68;;;4.35;;
46322;SDS011;32044;52.386;13.278;2023-07-16T05:07:42;7.57;;;4.32;;
46322;SDS011;32044;52.386;13.278;2023-07-16T05:10:10;5.45;;;4.50;;
46322;SDS011;32044;52.386;13.278;2023-07-16T05:12:39;6.63;;;3.92;;
46322;SDS011;32044;52.386;13.278;2023-07-16T05:15:08;4.53;;;4.10;;
46322;SDS011;32044;52.386;13.278;2023-07-16T05:17:36;5.03;;;4.50;;
46322;SDS011;32044;52.386;13.278;2023-07-16T05:20:04;6.90;;;4.18;;
46322;SDS011;32044;52.386;13.278;2023-07-16T05:22:33;6.82;;;4.28;;
46322;SDS011;32044;52.386;13.278;2023-07-16T05:25:00;4.03;;;3.70;;
46322;SDS011;32044;52.386;13.278;2023-07-16T05:27:28;6.78;;;3.88;;
46322;SDS011;32044;52.386;13.278;2023-07-16T05:29:57;10.20;;;3.83;;
46322;SDS011;32044;52.386;13.278;2023-07-16T05:32:24;7.70;;;4.13;;
46322;SDS011;32044;52.386;13.278;2023-07-16T05:34:52;5.07;;;3.83;;
46322;SDS011;32044;52.386;13.278;2023-07-16T05:37:19;7.10;;;3.42;;
46322;SDS011;32044;52.386;13.278;2023-07-16T05:39:47;7.70;;;3.70;;
46322;SDS011;32044;52.386;13.278;2023-07-16T05:42:14;4.35;;;3.42;;
46322;SDS011;32044;52.386;13.278;2023-07-16T05:44:42;5.50;;;3.65;;
46322;SDS011;32044;52.386;13.278;2023-07-16T05:47:12;4.90;;;3.10;;
46322;SDS011;32044;52.386;13.278;2023-07-16T05:49:39;6.82;;;3.38;;
46322;SDS011;32044;52.386;13.278;2023-07-16T05:52:07;4.20;;;3.80;;
46322;SDS011;32044;52.386;13.278;2023-07-16T05:54:35;4.75;;;3.58;;
46322;SDS011;32044;52.386;13.278;2023-07-16T05:57:03;5.00;;;3.40;;
46322;SDS011;32044;52.386;13.278;2023-07-16T05:59:31;6.32;;;3.75;;
46322;SDS011;32044;52.386;13.278;2023-07-16T06:02:00;7.70;;;3.63;;
46322;SDS011;32044;52.386;13.278;2023-07-16T06:04:29;6.47;;;3.65;;
46322;SDS011;32044;52.386;13.278;2023-07-16T06:06:57;6.88;;;4.05;;
46322;SDS011;32044;52.386;13.278;2023-07-16T06:09:24;4.63;;;3.80;;
46322;SDS011;32044;52.386;13.278;2023-07-16T06:11:52;7.50;;;3.90;;
46322;SDS011;32044;52.386;13.278;2023-07-16T06:14:20;3.97;;;3.30;;
46322;SDS011;32044;52.386;13.278;2023-07-16T06:16:47;6.47;;;3.88;;
46322;SDS011;32044;52.386;13.278;2023-07-16T06:19:15;5.75;;;3.30;;
46322;SDS011;32044;52.386;13.278;2023-07-16T06:21:44;5.78;;;3.58;;
46322;SDS011;32044;52.386;13.278;2023-07-16T06:24:11;7.35;;;3.50;;
46322;SDS011;32044;52.386;13.278;2023-07-16T06:26:42;7.30;;;3.93;;
46322;SDS011;32044;52.386;13.278;2023-07-16T06:29:10;6.35;;;3.67;;
46322;SDS011;32044;52.386;13.278;2023-07-16T06:31:38;4.95;;;3.40;;
46322;SDS011;32044;52.386;13.278;2023-07-16T06:34:14;3.90;;;3.45;;
46322;SDS011;32044;52.386;13.278;2023-07-16T06:36:43;5.43;;;3.30;;
46322;SDS011;32044;52.386;13.278;2023-07-16T06:39:11;3.90;;;3.17;;
46322;SDS011;32044;52.386;13.278;2023-07-16T06:41:38;4.70;;;3.17;;
46322;SDS011;32044;52.386;13.278;2023-07-16T06:44:06;6.93;;;3.40;;
46322;SDS011;32044;52.386;13.278;2023-07-16T06:46:33;3.60;;;2.80;;
46322;SDS011;32044;52.386;13.278;2023-07-16T06:49:01;4.88;;;3.22;;
46322;SDS011;32044;52.386;13.278;2023-07-16T06:51:28;9.20;;;3.42;;
46322;SDS011;32044;52.386;13.278;2023-07-16T06:53:59;5.10;;;3.30;;
46322;SDS011;32044;52.386;13.278;2023-07-16T06:56:26;4.97;;;2.83;;
46322;SDS011;32044;52.386;13.278;2023-07-16T06:58:54;5.60;;;2.90;;
46322;SDS011;32044;52.386;13.278;2023-07-16T07:01:22;4.70;;;2.70;;
46322;SDS011;32044;52.386;13.278;2023-07-16T07:03:49;4.13;;;2.90;;
46322;SDS011;32044;52.386;13.278;2023-07-16T07:06:17;4.50;;;2.80;;
46322;SDS011;32044;52.386;13.278;2023-07-16T07:08:44;5.95;;;2.90;;
46322;SDS011;32044;52.386;13.278;2023-07-16T07:11:13;5.05;;;2.60;;
46322;SDS011;32044;52.386;13.278;2023-07-16T07:13:41;4.10;;;3.10;;
46322;SDS011;32044;52.386;13.278;2023-07-16T07:16:09;2.83;;;2.53;;
46322;SDS011;32044;52.386;13.278;2023-07-16T07:18:37;4.57;;;3.00;;
46322;SDS011;32044;52.386;13.278;2023-07-16T07:21:04;4.45;;;2.85;;
46322;SDS011;32044;52.386;13.278;2023-07-16T07:23:32;3.10;;;2.55;;
46322;SDS011;32044;52.386;13.278;2023-07-16T07:25:59;3.90;;;2.75;;
46322;SDS011;32044;52.386;13.278;2023-07-16T07:28:28;4.53;;;2.50;;
46322;SDS011;32044;52.386;13.278;2023-07-16T07:30:56;4.28;;;2.72;;
46322;SDS011;32044;52.386;13.278;2023-07-16T07:33:24;4.82;;;2.75;;
46322;SDS011;32044;52.386;13.278;2023-07-16T07:35:52;3.10;;;2.42;;
46322;SDS011;32044;52.386;13.278;2023-07-16T07:38:20;2.60;;;2.17;;
46322;SDS011;32044;52.386;13.278;2023-07-16T07:40:48;4.28;;;1.95;;
46322;SDS011;32044;52.386;13.278;2023-07-16T07:43:15;4.65;;;2.10;;
46322;SDS011;32044;52.386;13.278;2023-07-16T07:45:44;2.95;;;2.35;;
46322;SDS011;32044;52.386;13.278;2023-07-16T07:48:12;3.05;;;2.25;;
46322;SDS011;32044;52.386;13.278;2023-07-16T07:50:39;3.78;;;2.40;;
46322;SDS011;32044;52.386;13.278;2023-07-16T07:53:07;6.18;;;2.55;;
46322;SDS011;32044;52.386;13.278;2023-07-16T07:55:35;2.60;;;2.40;;
46322;SDS011;32044;52.386;13.278;2023-07-16T07:58:02;3.20;;;2.33;;
46322;SDS011;32044;52.386;13.278;2023-07-16T08:00:30;5.40;;;2.42;;
46322;SDS011;32044;52.386;13.278;2023-07-16T08:02:59;3.33;;;2.50;;
46322;SDS011;32044;52.386;13.278;2023-07-16T08:05:28;3.35;;;2.42;;
46322;SDS011;32044;52.386;13.278;2023-07-16T08:07:55;3.53;;;2.13;;
46322;SDS011;32044;52.386;13.278;2023-07-16T08:10:23;2.33;;;1.80;;
46322;SDS011;32044;52.386;13.278;2023-07-16T08:12:50;4.22;;;2.17;;
46322;SDS011;32044;52.386;13.278;2023-07-16T08:15:18;3.92;;;1.92;;
46322;SDS011;32044;52.386;13.278;2023-07-16T08:17:46;3.58;;;1.75;;
46322;SDS011;32044;52.386;13.278;2023-07-16T08:20:15;3.25;;;2.20;;
46322;SDS011;32044;52.386;13.278;2023-07-16T08:22:43;4.43;;;2.25;;
46322;SDS011;32044;52.386;13.278;2023-07-16T08:25:11;3.10;;;1.70;;
46322;SDS011;32044;52.386;13.278;2023-07-16T08:27:38;4.53;;;2.08;;
46322;SDS011;32044;52.386;13.278;2023-07-16T08:30:06;5.28;;;1.95;;
46322;SDS011;32044;52.386;13.278;2023-07-16T08:32:34;1.98;;;1.70;;
46322;SDS011;32044;52.386;13.278;2023-07-16T08:35:02;3.05;;;1.73;;
46322;SDS011;32044;52.386;13.278;2023-07-16T08:37:32;5.57;;;2.17;;
46322;SDS011;32044;52.386;13.278;2023-07-16T08:40:00;3.20;;;1.50;;
46322;SDS011;32044;52.386;13.278;2023-07-16T08:42:27;4.05;;;1.95;;
46322;SDS011;32044;52.386;13.278;2023-07-16T08:44:56;3.17;;;2.00;;
46322;SDS011;32044;52.386;13.278;2023-07-16T08:47:23;2.88;;;1.80;;
46322;SDS011;32044;52.386;13.278;2023-07-16T08:49:53;2.50;;;1.80;;
46322;SDS011;32044;52.386;13.278;2023-07-16T08:52:22;3.53;;;1.92;;
46322;SDS011;32044;52.386;13.278;2023-07-16T08:54:51;3.42;;;1.75;;
46322;SDS011;32044;52.386;13.278;2023-07-16T08:57:18;3.47;;;2.17;;
46322;SDS011;32044;52.386;13.278;2023-07-16T08:59:48;5.22;;;1.98;;
46322;SDS011;32044;52.386;13.278;2023-07-16T09:02:17;2.97;;;2.20;;
46322;SDS011;32044;52.386;13.278;2023-07-16T09:04:46;2.80;;;1.95;;
46322;SDS011;32044;52.386;13.278;2023-07-16T09:07:13;4.00;;;2.25;;
46322;SDS011;32044;52.386;13.278;2023-07-16T09:09:41;3.10;;;2.15;;
46322;SDS011;32044;52.386;13.278;2023-07-16T09:12:12;3.55;;;2.28;;
46322;SDS011;32044;52.386;13.278;2023-07-16T09:14:40;3.30;;;1.95;;
46322;SDS011;32044;52.386;13.278;2023-07-16T09:17:07;7.32;;;2.13;;
46322;SDS011;32044;52.386;13.278;2023-07-16T09:19:35;6.20;;;2.45;;
46322;SDS011;32044;52.386;13.278;2023-07-16T09:22:03;4.00;;;2.42;;
46322;SDS011;32044;52.386;13.278;2023-07-16T09:24:32;5.57;;;2.65;;
46322;SDS011;32044;52.386;13.278;2023-07-16T09:27:00;2.85;;;2.10;;
46322;SDS011;32044;52.386;13.278;2023-07-16T09:29:29;3.42;;;2.30;;
46322;SDS011;32044;52.386;13.278;2023-07-16T09:31:58;5.18;;;2.35;;
46322;SDS011;32044;52.386;13.278;2023-07-16T09:34:26;3.33;;;2.20;;
46322;SDS011;32044;52.386;13.278;2023-07-16T09:36:55;5.30;;;2.17;;
46322;SDS011;32044;52.386;13.278;2023-07-16T09:39:23;3.35;;;1.80;;
46322;SDS011;32044;52.386;13.278;2023-07-16T09:41:52;3.63;;;1.95;;
46322;SDS011;32044;52.386;13.278;2023-07-16T09:44:20;2.72;;;2.13;;
46322;SDS011;32044;52.386;13.278;2023-07-16T09:46:48;6.82;;;2.40;;
46322;SDS011;32044;52.386;13.278;2023-07-16T09:49:16;4.10;;;2.22;;
46322;SDS011;32044;52.386;13.278;2023-07-16T09:51:44;5.70;;;2.63;;
46322;SDS011;32044;52.386;13.278;2023-07-16T09:54:12;4.72;;;2.60;;
46322;SDS011;32044;52.386;13.278;2023-07-16T09:56:41;5.35;;;2.25;;
46322;SDS011;32044;52.386;13.278;2023-07-16T09:59:13;3.50;;;2.10;;
46322;SDS011;32044;52.386;13.278;2023-07-16T10:01:42;3.38;;;2.10;;
46322;SDS011;32044;52.386;13.278;2023-07-16T10:04:13;3.78;;;2.00;;
46322;SDS011;32044;52.386;13.278;2023-07-16T10:06:48;4.25;;;1.88;;
46322;SDS011;32044;52.386;13.278;2023-07-16T10:09:31;5.82;;;2.00;;
46322;SDS011;32044;52.386;13.278;2023-07-16T10:12:11;5.20;;;2.00;;
46322;SDS011;32044;52.386;13.278;2023-07-16T10:14:40;3.42;;;1.95;;
46322;SDS011;32044;52.386;13.278;2023-07-16T10:17:12;2.38;;;1.65;;
46322;SDS011;32044;52.386;13.278;2023-07-16T10:19:50;4.50;;;2.30;;
46322;SDS011;32044;52.386;13.278;2023-07-16T10:22:19;3.10;;;1.95;;
46322;SDS011;32044;52.386;13.278;2023-07-16T10:24:53;4.20;;;2.00;;
46322;SDS011;32044;52.386;13.278;2023-07-16T10:27:26;4.25;;;2.00;;
46322;SDS011;32044;52.386;13.278;2023-07-16T10:29:55;4.07;;;2.53;;
46322;SDS011;32044;52.386;13.278;2023-07-16T10:32:25;2.55;;;1.90;;
46322;SDS011;32044;52.386;13.278;2023-07-16T10:34:55;4.33;;;2.10;;
46322;SDS011;32044;52.386;13.278;2023-07-16T10:37:23;5.63;;;2.70;;
46322;SDS011;32044;52.386;13.278;2023-07-16T10:39:51;5.95;;;2.50;;
46322;SDS011;32044;52.386;13.278;2023-07-16T10:42:22;4.15;;;2.47;;
46322;SDS011;32044;52.386;13.278;2023-07-16T10:44:50;3.97;;;2.28;;
46322;SDS011;32044;52.386;13.278;2023-07-16T10:47:19;5.35;;;2.22;;
46322;SDS011;32044;52.386;13.278;2023-07-16T10:49:49;2.70;;;2.25;;
46322;SDS011;32044;52.386;13.278;2023-07-16T10:52:19;3.80;;;1.95;;
46322;SDS011;32044;52.386;13.278;2023-07-16T10:54:47;2.78;;;2.20;;
46322;SDS011;32044;52.386;13.278;2023-07-16T10:57:16;3.13;;;2.10;;
46322;SDS011;32044;52.386;13.278;2023-07-16T10:59:45;5.45;;;2.25;;
46322;SDS011;32044;52.386;13.278;2023-07-16T11:02:15;5.82;;;2.30;;
46322;SDS011;32044;52.386;13.278;2023-07-16T11:04:43;4.78;;;2.40;;
46322;SDS011;32044;52.386;13.278;2023-07-16T11:07:12;7.60;;;2.42;;
46322;SDS011;32044;52.386;13.278;2023-07-16T11:09:42;3.78;;;2.17;;
46322;SDS011;32044;52.386;13.278;2023-07-16T11:12:11;3.38;;;1.70;;
46322;SDS011;32044;52.386;13.278;2023-07-16T11:14:39;4.90;;;1.90;;
46322;SDS011;32044;52.386;13.278;2023-07-16T11:17:10;3.80;;;2.38;;
46322;SDS011;32044;52.386;13.278;2023-07-16T11:19:38;3.60;;;1.92;;
46322;SDS011;32044;52.386;13.278;2023-07-16T11:22:07;7.00;;;2.28;;
46322;SDS011;32044;52.386;13.278;2023-07-16T11:24:38;3.22;;;2.03;;
46322;SDS011;32044;52.386;13.278;2023-07-16T11:27:12;5.80;;;1.98;;
46322;SDS011;32044;52.386;13.278;2023-07-16T11:29:44;2.67;;;1.85;;
46322;SDS011;32044;52.386;13.278;2023-07-16T11:32:12;3.55;;;2.03;;
46322;SDS011;32044;52.386;13.278;2023-07-16T11:34:53;3.67;;;2.10;;
46322;SDS011;32044;52.386;13.278;2023-07-16T11:37:21;3.55;;;1.75;;
46322;SDS011;32044;52.386;13.278;2023-07-16T11:39:49;4.28;;;1.98;;
46322;SDS011;32044;52.386;13.278;2023-07-16T11:42:23;3.30;;;1.95;;
46322;SDS011;32044;52.386;13.278;2023-07-16T11:44:54;4.20;;;1.83;;
46322;SDS011;32044;52.386;13.278;2023-07-16T11:47:23;4.60;;;2.00;;
46322;SDS011;32044;52.386;13.278;2023-07-16T11:49:50;7.20;;;2.22;;
46322;SDS011;32044;52.386;13.278;2023-07-16T11:52:18;3.10;;;1.90;;
46322;SDS011;32044;52.386;13.278;2023-07-16T11:54:47;3.97;;;2.00;;
46322;SDS011;32044;52.386;13.278;2023-07-16T11:57:15;4.65;;;2.10;;
46322;SDS011;32044;52.386;13.278;2023-07-16T11:59:45;4.63;;;2.20;;
46322;SDS011;32044;52.386;13.278;2023-07-16T12:02:13;3.90;;;1.85;;
46322;SDS011;32044;52.386;13.278;2023-07-16T12:04:42;5.78;;;2.40;;
46322;SDS011;32044;52.386;13.278;2023-07-16T12:07:09;3.55;;;1.73;;
46322;SDS011;32044;52.386;13.278;2023-07-16T12:09:37;3.70;;;1.90;;
46322;SDS011;32044;52.386;13.278;2023-07-16T12:12:05;4.00;;;1.98;;
46322;SDS011;32044;52.386;13.278;2023-07-16T12:14:33;3.95;;;2.10;;
46322;SDS011;32044;52.386;13.278;2023-07-16T12:17:04;3.50;;;1.67;;
46322;SDS011;32044;52.386;13.278;2023-07-16T12:19:31;5.50;;;1.65;;
46322;SDS011;32044;52.386;13.278;2023-07-16T12:21:59;3.38;;;2.15;;
46322;SDS011;32044;52.386;13.278;2023-07-16T12:24:27;9.05;;;2.13;;
46322;SDS011;32044;52.386;13.278;2023-07-16T12:26:54;4.63;;;2.25;;
46322;SDS011;32044;52.386;13.278;2023-07-16T12:29:22;2.85;;;2.00;;
46322;SDS011;32044;52.386;13.278;2023-07-16T12:31:50;7.47;;;2.08;;
46322;SDS011;32044;52.386;13.278;2023-07-16T12:34:19;3.95;;;1.85;;
46322;SDS011;32044;52.386;13.278;2023-07-16T12:36:47;3.70;;;2.10;;
46322;SDS011;32044;52.386;13.278;2023-07-16T12:39:14;2.70;;;1.98;;
46322;SDS011;32044;52.386;13.278;2023-07-16T12:41:42;3.35;;;2.00;;
46322;SDS011;32044;52.386;13.278;2023-07-16T12:44:10;4.57;;;2.03;;
46322;SDS011;32044;52.386;13.278;2023-07-16T12:46:37;3.00;;;2.15;;
46322;SDS011;32044;52.386;13.278;2023-07-16T12:49:05;3.38;;;2.03;;
46322;SDS011;32044;52.386;13.278;2023-07-16T12:51:34;4.20;;;1.95;;
46322;SDS011;32044;52.386;13.278;2023-07-16T12:54:01;3.92;;;2.20;;
46322;SDS011;32044;52.386;13.278;2023-07-16T12:56:29;4.68;;;2.15;;
46322;SDS011;32044;52.386;13.278;2023-07-16T12:58:58;3.67;;;1.83;;
46322;SDS011;32044;52.386;13.278;2023-07-16T13:01:26;3.60;;;2.08;;
46322;SDS011;32044;52.386;13.278;2023-07-16T13:03:54;3.38;;;1.80;;
46322;SDS011;32044;52.386;13.278;2023-07-16T13:06:21;4.90;;;2.22;;
46322;SDS011;32044;52.386;13.278;2023-07-16T13:08:50;3.47;;;1.80;;
46322;SDS011;32044;52.386;13.278;2023-07-16T13:11:18;3.45;;;2.35;;
46322;SDS011;32044;52.386;13.278;2023-07-16T13:13:45;4.13;;;2.00;;
46322;SDS011;32044;52.386;13.278;2023-07-16T13:16:13;2.78;;;1.88;;
46322;SDS011;32044;52.386;13.278;2023-07-16T13:18:41;3.70;;;1.90;;
46322;SDS011;32044;52.386;13.278;2023-07-16T13:21:09;2.20;;;1.85;;
46322;SDS011;32044;52.386;13.278;2023-07-16T13:23:36;3.03;;;1.80;;
46322;SDS011;32044;52.386;13.278;2023-07-16T13:26:05;4.80;;;2.00;;
46322;SDS011;32044;52.386;13.278;2023-07-16T13:28:33;5.95;;;2.10;;
46322;SDS011;32044;52.386;13.278;2023-07-16T13:31:01;6.32;;;2.20;;
46322;SDS011;32044;52.386;13.278;2023-07-16T13:33:28;4.40;;;2.15;;
46322;SDS011;32044;52.386;13.278;2023-07-16T13:35:56;4.10;;;1.98;;
46322;SDS011;32044;52.386;13.278;2023-07-16T13:38:27;3.75;;;2.25;;
46322;SDS011;32044;52.386;13.278;2023-07-16T13:40:55;5.70;;;1.90;;
46322;SDS011;32044;52.386;13.278;2023-07-16T13:43:24;3.60;;;2.13;;
46322;SDS011;32044;52.386;13.278;2023-07-16T13:45:51;2.60;;;1.65;;
46322;SDS011;32044;52.386;13.278;2023-07-16T13:48:19;3.78;;;1.90;;
46322;SDS011;32044;52.386;13.278;2023-07-16T13:50:47;5.07;;;1.80;;
46322;SDS011;32044;52.386;13.278;2023-07-16T13:53:14;2.10;;;1.35;;
46322;SDS011;32044;52.386;13.278;2023-07-16T13:55:42;2.63;;;1.58;;
46322;SDS011;32044;52.386;13.278;2023-07-16T13:58:10;4.60;;;1.90;;
46322;SDS011;32044;52.386;13.278;2023-07-16T14:00:39;2.53;;;1.67;;
46322;SDS011;32044;52.386;13.278;2023-07-16T14:03:07;4.13;;;1.70;;
46322;SDS011;32044;52.386;13.278;2023-07-16T14:05:35;2.97;;;2.05;;
46322;SDS011;32044;52.386;13.278;2023-07-16T14:08:05;4.70;;;1.63;;
46322;SDS011;32044;52.386;13.278;2023-07-16T14:10:33;2.53;;;1.55;;
46322;SDS011;32044;52.386;13.278;2023-07-16T14:13:00;8.82;;;2.00;;
46322;SDS011;32044;52.386;13.278;2023-07-16T14:15:28;4.22;;;1.75;;
46322;SDS011;32044;52.386;13.278;2023-07-16T14:17:57;4.65;;;1.95;;
46322;SDS011;32044;52.386;13.278;2023-07-16T14:20:25;2.78;;;1.80;;
46322;SDS011;32044;52.386;13.278;2023-07-16T14:22:52;4.03;;;1.58;;
46322;SDS011;32044;52.386;13.278;2023-07-16T14:25:20;4.00;;;1.65;;
46322;SDS011;32044;52.386;13.278;2023-07-16T14:27:48;5.05;;;1.90;;
46322;SDS011;32044;52.386;13.278;2023-07-16T14:30:15;3.75;;;1.85;;
46322;SDS011;32044;52.386;13.278;2023-07-16T14:32:43;5.88;;;2.30;;
46322;SDS011;32044;52.386;13.278;2023-07-16T14:35:12;5.20;;;1.70;;
46322;SDS011;32044;52.386;13.278;2023-07-16T14:37:55;7.00;;;1.85;;
46322;SDS011;32044;52.386;13.278;2023-07-16T14:40:23;6.75;;;1.90;;
46322;SDS011;32044;52.386;13.278;2023-07-16T14:42:50;2.85;;;1.80;;